sensor_id;sensor_type;location;lat;lon;timestamp;P1;durP1;ratioP1;P2;durP2;ratioP2
18146;SDS011;9199;48.832;9.182;2023-03-21T00:02:01;9.20;;;4.90;;
18146;SDS011;9199;48.832;9.182;2023-03-21T00:04:29;9.10;;;4.30;;
18146;SDS011;9199;48.832;9.182;2023-03-21T00:06:56;8.82;;;4.55;;
18146;SDS011;9199;48.832;9.182;2023-03-21T00:09:23;10.35;;;4.90;;
18146;SDS011;9199;48.832;9.182;2023-03-21T00:11:51;9.35;;;5.20;;
18146;SDS011;9199;48.832;9.182;2023-03-21T00:14:17;10.03;;;5.40;;
18146;SDS011;9199;48.832;9.182;2023-03-21T00:16:44;12.05;;;6.65;;
18146;SDS011;9199;48.832;9.182;2023-03-21T00:19:14;16.10;;;8.35;;
18146;SDS011;9199;48.832;9.182;2023-03-21T00:21:43;14.10;;;7.55;;
18146;SDS011;9199;48.832;9.182;2023-03-21T00:24:10;12.85;;;6.07;;
18146;SDS011;9199;48.832;9.182;2023-03-21T00:26:37;10.43;;;5.73;;
18146;SDS011;9199;48.832;9.182;2023-03-21T00:29:04;11.95;;;6.05;;
18146;SDS011;9199;48.832;9.182;2023-03-21T00:31:31;10.55;;;5.70;;
18146;SDS011;9199;48.832;9.182;2023-03-21T00:33:58;8.93;;;5.13;;
18146;SDS011;9199;48.832;9.182;2023-03-21T00:36:25;19.83;;;9.13;;
18146;SDS011;9199;48.832;9.182;2023-03-21T00:38:53;26.37;;;11.77;;
18146;SDS011;9199;48.832;9.182;2023-03-21T00:41:20;22.85;;;11.68;;
18146;SDS011;9199;48.832;9.182;2023-03-21T00:43:47;16.50;;;9.65;;
18146;SDS011;9199;48.832;9.182;2023-03-21T00:46:13;20.80;;;10.93;;
18146;SDS011;9199;48.832;9.182;2023-03-21T00:48:40;15.30;;;9.15;;
18146;SDS011;9199;48.832;9.182;2023-03-21T00:51:10;16.17;;;9.13;;
18146;SDS011;9199;48.832;9.182;2023-03-21T00:53:39;18.08;;;12.70;;
18146;SDS011;9199;48.832;9.182;2023-03-21T00:56:08;16.52;;;11.25;;
18146;SDS011;9199;48.832;9.182;2023-03-21T00:58:35;12.70;;;8.65;;
18146;SDS011;9199;48.832;9.182;2023-03-21T01:01:01;12.45;;;7.50;;
18146;SDS011;9199;48.832;9.182;2023-03-21T01:03:30;11.13;;;6.87;;
18146;SDS011;9199;48.832;9.182;2023-03-21T01:05:58;11.93;;;6.75;;
18146;SDS011;9199;48.832;9.182;2023-03-21T01:08:30;10.93;;;6.18;;
18146;SDS011;9199;48.832;9.182;2023-03-21T01:10:59;9.18;;;5.75;;
18146;SDS011;9199;48.832;9.182;2023-03-21T01:13:29;11.15;;;5.47;;
18146;SDS011;9199;48.832;9.182;2023-03-21T01:15:56;8.23;;;5.33;;
18146;SDS011;9199;48.832;9.182;2023-03-21T01:18:25;8.73;;;5.40;;
18146;SDS011;9199;48.832;9.182;2023-03-21T01:20:54;11.30;;;5.90;;
18146;SDS011;9199;48.832;9.182;2023-03-21T01:23:22;10.30;;;5.40;;
18146;SDS011;9199;48.832;9.182;2023-03-21T01:25:49;10.00;;;5.60;;
18146;SDS011;9199;48.832;9.182;2023-03-21T01:28:17;12.33;;;5.77;;
18146;SDS011;9199;48.832;9.182;2023-03-21T01:30:46;10.70;;;6.00;;
18146;SDS011;9199;48.832;9.182;2023-03-21T01:33:13;9.77;;;5.30;;
18146;SDS011;9199;48.832;9.182;2023-03-21T01:35:40;12.73;;;6.32;;
18146;SDS011;9199;48.832;9.182;2023-03-21T01:38:07;9.73;;;6.00;;
18146;SDS011;9199;48.832;9.182;2023-03-21T01:40:35;11.67;;;6.50;;
18146;SDS011;9199;48.832;9.182;2023-03-21T01:43:02;9.25;;;5.63;;
18146;SDS011;9199;48.832;9.182;2023-03-21T01:48:36;11.15;;;6.25;;
18146;SDS011;9199;48.832;9.182;2023-03-21T01:51:06;9.90;;;5.47;;
18146;SDS011;9199;48.832;9.182;2023-03-21T01:53:34;8.23;;;5.10;;
18146;SDS011;9199;48.832;9.182;2023-03-21T01:56:04;10.75;;;5.45;;
18146;SDS011;9199;48.832;9.182;2023-03-21T01:58:35;8.48;;;5.10;;
18146;SDS011;9199;48.832;9.182;2023-03-21T02:01:03;11.13;;;5.60;;
18146;SDS011;9199;48.832;9.182;2023-03-21T02:03:30;9.60;;;5.53;;
18146;SDS011;9199;48.832;9.182;2023-03-21T02:06:03;10.70;;;5.53;;
18146;SDS011;9199;48.832;9.182;2023-03-21T02:08:35;8.98;;;5.45;;
18146;SDS011;9199;48.832;9.182;2023-03-21T02:11:02;9.20;;;5.30;;
18146;SDS011;9199;48.832;9.182;2023-03-21T02:13:29;8.73;;;4.97;;
18146;SDS011;9199;48.832;9.182;2023-03-21T02:15:56;11.50;;;6.00;;
18146;SDS011;9199;48.832;9.182;2023-03-21T02:18:28;9.47;;;5.33;;
18146;SDS011;9199;48.832;9.182;2023-03-21T02:24:31;9.80;;;5.53;;
18146;SDS011;9199;48.832;9.182;2023-03-21T02:27:36;8.38;;;5.10;;
18146;SDS011;9199;48.832;9.182;2023-03-21T02:30:18;10.05;;;5.13;;
18146;SDS011;9199;48.832;9.182;2023-03-21T02:33:14;9.33;;;4.57;;
18146;SDS011;9199;48.832;9.182;2023-03-21T02:36:03;10.35;;;5.35;;
18146;SDS011;9199;48.832;9.182;2023-03-21T02:38:44;10.30;;;4.80;;
18146;SDS011;9199;48.832;9.182;2023-03-21T02:41:18;10.63;;;5.07;;
18146;SDS011;9199;48.832;9.182;2023-03-21T02:43:50;8.23;;;4.80;;
18146;SDS011;9199;48.832;9.182;2023-03-21T02:46:25;7.50;;;5.00;;
18146;SDS011;9199;48.832;9.182;2023-03-21T02:49:00;9.45;;;4.82;;
18146;SDS011;9199;48.832;9.182;2023-03-21T02:51:32;7.60;;;4.25;;
18146;SDS011;9199;48.832;9.182;2023-03-21T02:54:04;8.25;;;4.55;;
18146;SDS011;9199;48.832;9.182;2023-03-21T02:56:34;9.98;;;5.47;;
18146;SDS011;9199;48.832;9.182;2023-03-21T02:59:02;10.57;;;5.60;;
18146;SDS011;9199;48.832;9.182;2023-03-21T03:01:29;8.75;;;5.30;;
18146;SDS011;9199;48.832;9.182;2023-03-21T03:03:56;10.25;;;5.65;;
18146;SDS011;9199;48.832;9.182;2023-03-21T03:06:23;9.15;;;5.75;;
18146;SDS011;9199;48.832;9.182;2023-03-21T03:09:01;10.38;;;6.05;;
18146;SDS011;9199;48.832;9.182;2023-03-21T03:11:40;11.87;;;6.40;;
18146;SDS011;9199;48.832;9.182;2023-03-21T03:14:15;9.88;;;6.40;;
18146;SDS011;9199;48.832;9.182;2023-03-21T03:16:57;9.80;;;6.00;;
18146;SDS011;9199;48.832;9.182;2023-03-21T03:19:33;9.68;;;6.07;;
18146;SDS011;9199;48.832;9.182;2023-03-21T03:22:08;9.00;;;5.55;;
18146;SDS011;9199;48.832;9.182;2023-03-21T03:24:41;9.47;;;5.83;;
18146;SDS011;9199;48.832;9.182;2023-03-21T03:27:12;10.95;;;6.10;;
18146;SDS011;9199;48.832;9.182;2023-03-21T03:29:43;9.93;;;5.90;;
18146;SDS011;9199;48.832;9.182;2023-03-21T03:32:14;10.05;;;6.00;;
18146;SDS011;9199;48.832;9.182;2023-03-21T03:34:43;10.65;;;6.22;;
18146;SDS011;9199;48.832;9.182;2023-03-21T03:37:20;9.37;;;5.63;;
18146;SDS011;9199;48.832;9.182;2023-03-21T03:39:52;13.60;;;6.22;;
18146;SDS011;9199;48.832;9.182;2023-03-21T03:42:23;10.57;;;5.82;;
18146;SDS011;9199;48.832;9.182;2023-03-21T03:44:53;10.85;;;6.47;;
18146;SDS011;9199;48.832;9.182;2023-03-21T03:47:21;10.57;;;6.10;;
18146;SDS011;9199;48.832;9.182;2023-03-21T03:49:54;9.67;;;5.73;;
18146;SDS011;9199;48.832;9.182;2023-03-21T03:52:34;13.15;;;5.53;;
18146;SDS011;9199;48.832;9.182;2023-03-21T03:55:06;10.38;;;6.03;;
18146;SDS011;9199;48.832;9.182;2023-03-21T03:57:34;9.00;;;6.30;;
18146;SDS011;9199;48.832;9.182;2023-03-21T04:00:02;10.35;;;5.97;;
18146;SDS011;9199;48.832;9.182;2023-03-21T04:02:35;10.83;;;6.57;;
18146;SDS011;9199;48.832;9.182;2023-03-21T04:05:02;12.57;;;5.93;;
18146;SDS011;9199;48.832;9.182;2023-03-21T04:07:29;9.15;;;5.80;;
18146;SDS011;9199;48.832;9.182;2023-03-21T04:09:56;9.73;;;6.25;;
18146;SDS011;9199;48.832;9.182;2023-03-21T04:12:24;10.20;;;6.47;;
18146;SDS011;9199;48.832;9.182;2023-03-21T04:14:51;10.00;;;6.57;;
18146;SDS011;9199;48.832;9.182;2023-03-21T04:17:18;9.77;;;5.88;;
18146;SDS011;9199;48.832;9.182;2023-03-21T04:19:44;10.48;;;6.45;;
18146;SDS011;9199;48.832;9.182;2023-03-21T04:22:11;11.50;;;6.32;;
18146;SDS011;9199;48.832;9.182;2023-03-21T04:24:38;11.27;;;6.40;;
18146;SDS011;9199;48.832;9.182;2023-03-21T04:27:06;10.73;;;6.00;;
18146;SDS011;9199;48.832;9.182;2023-03-21T04:29:34;9.27;;;6.07;;
18146;SDS011;9199;48.832;9.182;2023-03-21T04:32:01;9.95;;;6.18;;
18146;SDS011;9199;48.832;9.182;2023-03-21T04:34:28;9.55;;;6.05;;
18146;SDS011;9199;48.832;9.182;2023-03-21T04:36:54;12.15;;;7.30;;
18146;SDS011;9199;48.832;9.182;2023-03-21T04:39:21;10.50;;;7.07;;
18146;SDS011;9199;48.832;9.182;2023-03-21T04:41:48;14.80;;;7.00;;
18146;SDS011;9199;48.832;9.182;2023-03-21T04:44:15;13.13;;;6.93;;
18146;SDS011;9199;48.832;9.182;2023-03-21T04:46:44;11.10;;;6.75;;
18146;SDS011;9199;48.832;9.182;2023-03-21T04:49:10;10.80;;;6.45;;
18146;SDS011;9199;48.832;9.182;2023-03-21T04:51:37;10.50;;;6.57;;
18146;SDS011;9199;48.832;9.182;2023-03-21T04:54:04;11.70;;;6.57;;
18146;SDS011;9199;48.832;9.182;2023-03-21T04:56:31;11.95;;;6.68;;
18146;SDS011;9199;48.832;9.182;2023-03-21T04:59:01;13.00;;;6.65;;
18146;SDS011;9199;48.832;9.182;2023-03-21T05:01:31;11.88;;;6.70;;
18146;SDS011;9199;48.832;9.182;2023-03-21T05:04:00;12.87;;;6.83;;
18146;SDS011;9199;48.832;9.182;2023-03-21T05:06:27;11.70;;;6.63;;
18146;SDS011;9199;48.832;9.182;2023-03-21T05:08:54;12.93;;;7.10;;
18146;SDS011;9199;48.832;9.182;2023-03-21T05:11:24;11.75;;;6.60;;
18146;SDS011;9199;48.832;9.182;2023-03-21T05:13:50;12.15;;;6.55;;
18146;SDS011;9199;48.832;9.182;2023-03-21T05:16:17;11.70;;;6.43;;
18146;SDS011;9199;48.832;9.182;2023-03-21T05:18:44;12.07;;;6.65;;
18146;SDS011;9199;48.832;9.182;2023-03-21T05:21:15;12.90;;;6.75;;
18146;SDS011;9199;48.832;9.182;2023-03-21T05:23:43;13.55;;;6.68;;
18146;SDS011;9199;48.832;9.182;2023-03-21T05:26:09;9.55;;;6.28;;
18146;SDS011;9199;48.832;9.182;2023-03-21T05:28:36;11.37;;;6.07;;
18146;SDS011;9199;48.832;9.182;2023-03-21T05:31:04;9.60;;;6.63;;
18146;SDS011;9199;48.832;9.182;2023-03-21T05:33:32;10.45;;;5.72;;
18146;SDS011;9199;48.832;9.182;2023-03-21T05:35:58;9.50;;;6.13;;
18146;SDS011;9199;48.832;9.182;2023-03-21T05:38:26;10.07;;;5.60;;
18146;SDS011;9199;48.832;9.182;2023-03-21T05:40:53;11.27;;;5.77;;
18146;SDS011;9199;48.832;9.182;2023-03-21T05:43:20;9.60;;;5.57;;
18146;SDS011;9199;48.832;9.182;2023-03-21T05:45:46;10.63;;;5.70;;
18146;SDS011;9199;48.832;9.182;2023-03-21T05:48:13;10.07;;;5.35;;
18146;SDS011;9199;48.832;9.182;2023-03-21T05:50:40;12.85;;;5.32;;
18146;SDS011;9199;48.832;9.182;2023-03-21T05:53:07;9.10;;;4.97;;
18146;SDS011;9199;48.832;9.182;2023-03-21T05:55:35;9.18;;;4.55;;
18146;SDS011;9199;48.832;9.182;2023-03-21T05:58:02;5.10;;;2.97;;
18146;SDS011;9199;48.832;9.182;2023-03-21T06:00:29;7.40;;;4.28;;
18146;SDS011;9199;48.832;9.182;2023-03-21T06:02:56;7.32;;;3.70;;
18146;SDS011;9199;48.832;9.182;2023-03-21T06:05:22;7.10;;;3.90;;
18146;SDS011;9199;48.832;9.182;2023-03-21T06:07:49;8.13;;;4.22;;
18146;SDS011;9199;48.832;9.182;2023-03-21T06:10:16;10.55;;;3.88;;
18146;SDS011;9199;48.832;9.182;2023-03-21T06:12:44;7.57;;;3.55;;
18146;SDS011;9199;48.832;9.182;2023-03-21T06:15:11;6.13;;;3.33;;
18146;SDS011;9199;48.832;9.182;2023-03-21T06:17:37;9.20;;;3.77;;
18146;SDS011;9199;48.832;9.182;2023-03-21T06:20:05;8.85;;;3.72;;
18146;SDS011;9199;48.832;9.182;2023-03-21T06:22:34;7.85;;;3.72;;
18146;SDS011;9199;48.832;9.182;2023-03-21T06:25:01;7.75;;;3.33;;
18146;SDS011;9199;48.832;9.182;2023-03-21T06:27:28;6.53;;;3.60;;
18146;SDS011;9199;48.832;9.182;2023-03-21T06:29:56;6.87;;;3.17;;
18146;SDS011;9199;48.832;9.182;2023-03-21T06:32:23;7.60;;;3.42;;
18146;SDS011;9199;48.832;9.182;2023-03-21T06:34:51;7.50;;;3.80;;
18146;SDS011;9199;48.832;9.182;2023-03-21T06:37:18;7.15;;;3.67;;
18146;SDS011;9199;48.832;9.182;2023-03-21T06:39:45;8.48;;;3.15;;
18146;SDS011;9199;48.832;9.182;2023-03-21T06:42:12;6.77;;;3.80;;
18146;SDS011;9199;48.832;9.182;2023-03-21T06:44:39;8.65;;;3.53;;
18146;SDS011;9199;48.832;9.182;2023-03-21T06:47:07;6.93;;;3.20;;
18146;SDS011;9199;48.832;9.182;2023-03-21T06:49:34;10.15;;;3.65;;
18146;SDS011;9199;48.832;9.182;2023-03-21T06:52:01;7.72;;;4.05;;
18146;SDS011;9199;48.832;9.182;2023-03-21T06:54:27;8.40;;;3.80;;
18146;SDS011;9199;48.832;9.182;2023-03-21T06:56:54;8.43;;;3.53;;
18146;SDS011;9199;48.832;9.182;2023-03-21T06:59:21;7.72;;;3.83;;
18146;SDS011;9199;48.832;9.182;2023-03-21T07:01:48;7.95;;;3.60;;
18146;SDS011;9199;48.832;9.182;2023-03-21T07:04:16;6.70;;;3.58;;
18146;SDS011;9199;48.832;9.182;2023-03-21T07:06:42;9.37;;;3.80;;
18146;SDS011;9199;48.832;9.182;2023-03-21T07:09:09;6.30;;;3.80;;
18146;SDS011;9199;48.832;9.182;2023-03-21T07:11:36;7.22;;;3.70;;
18146;SDS011;9199;48.832;9.182;2023-03-21T07:14:03;7.35;;;4.05;;
18146;SDS011;9199;48.832;9.182;2023-03-21T07:16:31;10.43;;;3.63;;
18146;SDS011;9199;48.832;9.182;2023-03-21T07:18:58;5.53;;;3.20;;
18146;SDS011;9199;48.832;9.182;2023-03-21T07:21:26;8.18;;;3.80;;
18146;SDS011;9199;48.832;9.182;2023-03-21T07:23:52;8.60;;;3.90;;
18146;SDS011;9199;48.832;9.182;2023-03-21T07:26:19;6.45;;;3.65;;
18146;SDS011;9199;48.832;9.182;2023-03-21T07:28:46;13.27;;;5.38;;
18146;SDS011;9199;48.832;9.182;2023-03-21T07:31:14;10.17;;;4.53;;
18146;SDS011;9199;48.832;9.182;2023-03-21T07:33:41;6.55;;;3.80;;
18146;SDS011;9199;48.832;9.182;2023-03-21T07:36:08;6.63;;;3.67;;
18146;SDS011;9199;48.832;9.182;2023-03-21T07:38:38;8.50;;;3.55;;
18146;SDS011;9199;48.832;9.182;2023-03-21T07:41:06;11.20;;;4.13;;
18146;SDS011;9199;48.832;9.182;2023-03-21T07:43:32;5.63;;;3.80;;
18146;SDS011;9199;48.832;9.182;2023-03-21T07:45:59;6.68;;;3.38;;
18146;SDS011;9199;48.832;9.182;2023-03-21T07:48:27;5.95;;;3.10;;
18146;SDS011;9199;48.832;9.182;2023-03-21T07:50:54;6.65;;;3.33;;
18146;SDS011;9199;48.832;9.182;2023-03-21T07:53:21;6.47;;;3.10;;
18146;SDS011;9199;48.832;9.182;2023-03-21T07:55:50;6.90;;;3.30;;
18146;SDS011;9199;48.832;9.182;2023-03-21T07:58:19;6.93;;;3.88;;
18146;SDS011;9199;48.832;9.182;2023-03-21T08:00:46;5.82;;;3.03;;
18146;SDS011;9199;48.832;9.182;2023-03-21T08:03:13;7.18;;;3.35;;
18146;SDS011;9199;48.832;9.182;2023-03-21T08:05:40;5.63;;;2.92;;
18146;SDS011;9199;48.832;9.182;2023-03-21T08:08:08;5.33;;;3.23;;
18146;SDS011;9199;48.832;9.182;2023-03-21T08:10:35;6.38;;;3.72;;
18146;SDS011;9199;48.832;9.182;2023-03-21T08:13:03;7.75;;;4.15;;
18146;SDS011;9199;48.832;9.182;2023-03-21T08:15:29;7.47;;;4.00;;
18146;SDS011;9199;48.832;9.182;2023-03-21T08:17:57;9.43;;;4.00;;
18146;SDS011;9199;48.832;9.182;2023-03-21T08:20:24;7.87;;;4.00;;
18146;SDS011;9199;48.832;9.182;2023-03-21T08:22:51;10.48;;;4.07;;
18146;SDS011;9199;48.832;9.182;2023-03-21T08:25:18;9.25;;;4.28;;
18146;SDS011;9199;48.832;9.182;2023-03-21T08:27:46;8.18;;;4.13;;
18146;SDS011;9199;48.832;9.182;2023-03-21T08:30:17;9.02;;;4.32;;
18146;SDS011;9199;48.832;9.182;2023-03-21T08:32:45;7.03;;;4.37;;
18146;SDS011;9199;48.832;9.182;2023-03-21T08:35:12;7.50;;;3.60;;
18146;SDS011;9199;48.832;9.182;2023-03-21T08:37:41;6.38;;;3.60;;
18146;SDS011;9199;48.832;9.182;2023-03-21T08:40:09;8.63;;;3.85;;
18146;SDS011;9199;48.832;9.182;2023-03-21T08:42:38;6.40;;;3.17;;
18146;SDS011;9199;48.832;9.182;2023-03-21T08:45:06;6.60;;;2.80;;
18146;SDS011;9199;48.832;9.182;2023-03-21T08:47:35;7.97;;;3.15;;
18146;SDS011;9199;48.832;9.182;2023-03-21T08:50:03;5.78;;;2.75;;
18146;SDS011;9199;48.832;9.182;2023-03-21T08:52:32;6.43;;;3.20;;
18146;SDS011;9199;48.832;9.182;2023-03-21T08:54:58;6.70;;;3.05;;
18146;SDS011;9199;48.832;9.182;2023-03-21T08:57:26;6.40;;;3.00;;
18146;SDS011;9199;48.832;9.182;2023-03-21T08:59:53;5.80;;;2.95;;
18146;SDS011;9199;48.832;9.182;2023-03-21T09:02:20;5.80;;;3.03;;
18146;SDS011;9199;48.832;9.182;2023-03-21T09:04:48;5.65;;;2.97;;
18146;SDS011;9199;48.832;9.182;2023-03-21T09:07:17;5.53;;;3.00;;
18146;SDS011;9199;48.832;9.182;2023-03-21T09:09:44;6.00;;;2.93;;
18146;SDS011;9199;48.832;9.182;2023-03-21T09:12:11;7.85;;;2.83;;
18146;SDS011;9199;48.832;9.182;2023-03-21T09:14:37;5.50;;;2.45;;
18146;SDS011;9199;48.832;9.182;2023-03-21T09:17:05;6.00;;;2.65;;
18146;SDS011;9199;48.832;9.182;2023-03-21T09:19:31;5.80;;;2.67;;
18146;SDS011;9199;48.832;9.182;2023-03-21T09:22:00;6.17;;;2.67;;
18146;SDS011;9199;48.832;9.182;2023-03-21T09:24:29;7.57;;;2.83;;
18146;SDS011;9199;48.832;9.182;2023-03-21T09:26:56;4.82;;;2.50;;
18146;SDS011;9199;48.832;9.182;2023-03-21T09:29:23;4.53;;;2.60;;
18146;SDS011;9199;48.832;9.182;2023-03-21T09:31:50;6.53;;;2.30;;
18146;SDS011;9199;48.832;9.182;2023-03-21T09:34:18;4.93;;;2.23;;
18146;SDS011;9199;48.832;9.182;2023-03-21T09:36:45;6.65;;;2.60;;
18146;SDS011;9199;48.832;9.182;2023-03-21T09:39:17;5.55;;;2.42;;
18146;SDS011;9199;48.832;9.182;2023-03-21T09:42:01;7.68;;;2.72;;
18146;SDS011;9199;48.832;9.182;2023-03-21T09:44:38;5.45;;;2.47;;
18146;SDS011;9199;48.832;9.182;2023-03-21T09:47:15;9.03;;;2.87;;
18146;SDS011;9199;48.832;9.182;2023-03-21T09:49:46;5.82;;;2.35;;
18146;SDS011;9199;48.832;9.182;2023-03-21T09:52:18;7.07;;;2.60;;
18146;SDS011;9199;48.832;9.182;2023-03-21T09:54:49;4.80;;;2.42;;
18146;SDS011;9199;48.832;9.182;2023-03-21T09:57:20;6.13;;;2.10;;
18146;SDS011;9199;48.832;9.182;2023-03-21T09:59:54;4.93;;;2.10;;
18146;SDS011;9199;48.832;9.182;2023-03-21T10:02:32;6.15;;;2.00;;
18146;SDS011;9199;48.832;9.182;2023-03-21T10:05:08;4.72;;;2.13;;
18146;SDS011;9199;48.832;9.182;2023-03-21T10:07:39;4.95;;;1.92;;
18146;SDS011;9199;48.832;9.182;2023-03-21T10:10:15;4.30;;;1.90;;
18146;SDS011;9199;48.832;9.182;2023-03-21T10:12:44;4.37;;;1.93;;
18146;SDS011;9199;48.832;9.182;2023-03-21T10:15:14;3.85;;;1.60;;
18146;SDS011;9199;48.832;9.182;2023-03-21T10:17:43;3.63;;;1.60;;
18146;SDS011;9199;48.832;9.182;2023-03-21T10:20:18;4.57;;;1.60;;
18146;SDS011;9199;48.832;9.182;2023-03-21T10:22:48;4.63;;;1.70;;
18146;SDS011;9199;48.832;9.182;2023-03-21T10:25:18;4.27;;;1.97;;
18146;SDS011;9199;48.832;9.182;2023-03-21T10:27:47;3.30;;;1.60;;
18146;SDS011;9199;48.832;9.182;2023-03-21T10:30:18;4.63;;;1.75;;
18146;SDS011;9199;48.832;9.182;2023-03-21T10:32:50;4.03;;;1.95;;
18146;SDS011;9199;48.832;9.182;2023-03-21T10:35:17;6.25;;;1.90;;
18146;SDS011;9199;48.832;9.182;2023-03-21T10:37:45;4.90;;;1.80;;
18146;SDS011;9199;48.832;9.182;2023-03-21T10:40:13;3.92;;;1.60;;
18146;SDS011;9199;48.832;9.182;2023-03-21T10:42:42;5.38;;;1.88;;
18146;SDS011;9199;48.832;9.182;2023-03-21T10:45:13;4.72;;;1.55;;
18146;SDS011;9199;48.832;9.182;2023-03-21T10:47:42;3.72;;;1.73;;
18146;SDS011;9199;48.832;9.182;2023-03-21T10:50:14;4.50;;;1.80;;
18146;SDS011;9199;48.832;9.182;2023-03-21T10:52:44;5.35;;;1.75;;
18146;SDS011;9199;48.832;9.182;2023-03-21T10:55:19;3.90;;;1.85;;
18146;SDS011;9199;48.832;9.182;2023-03-21T10:57:53;4.22;;;1.73;;
18146;SDS011;9199;48.832;9.182;2023-03-21T11:00:23;3.97;;;2.08;;
18146;SDS011;9199;48.832;9.182;2023-03-21T11:02:53;3.70;;;1.80;;
18146;SDS011;9199;48.832;9.182;2023-03-21T11:05:21;3.85;;;1.80;;
18146;SDS011;9199;48.832;9.182;2023-03-21T11:07:57;4.85;;;1.85;;
18146;SDS011;9199;48.832;9.182;2023-03-21T11:10:26;3.97;;;2.05;;
18146;SDS011;9199;48.832;9.182;2023-03-21T11:12:56;6.35;;;1.77;;
18146;SDS011;9199;48.832;9.182;2023-03-21T11:15:27;6.10;;;2.70;;
18146;SDS011;9199;48.832;9.182;2023-03-21T11:17:56;6.28;;;2.30;;
18146;SDS011;9199;48.832;9.182;2023-03-21T11:20:23;7.00;;;2.28;;
18146;SDS011;9199;48.832;9.182;2023-03-21T11:22:52;5.15;;;2.38;;
18146;SDS011;9199;48.832;9.182;2023-03-21T11:25:21;6.40;;;2.40;;
18146;SDS011;9199;48.832;9.182;2023-03-21T11:27:58;4.37;;;2.40;;
18146;SDS011;9199;48.832;9.182;2023-03-21T11:30:32;5.57;;;3.10;;
18146;SDS011;9199;48.832;9.182;2023-03-21T11:33:00;6.95;;;2.75;;
18146;SDS011;9199;48.832;9.182;2023-03-21T11:35:31;7.10;;;2.53;;
18146;SDS011;9199;48.832;9.182;2023-03-21T11:38:00;6.00;;;3.08;;
18146;SDS011;9199;48.832;9.182;2023-03-21T11:40:27;6.03;;;2.77;;
18146;SDS011;9199;48.832;9.182;2023-03-21T11:42:55;7.53;;;2.20;;
18146;SDS011;9199;48.832;9.182;2023-03-21T11:45:25;5.70;;;2.40;;
18146;SDS011;9199;48.832;9.182;2023-03-21T11:47:53;5.63;;;2.50;;
18146;SDS011;9199;48.832;9.182;2023-03-21T11:50:28;7.75;;;2.70;;
18146;SDS011;9199;48.832;9.182;2023-03-21T11:53:01;7.43;;;2.50;;
18146;SDS011;9199;48.832;9.182;2023-03-21T11:55:40;8.68;;;2.50;;
18146;SDS011;9199;48.832;9.182;2023-03-21T11:58:23;5.25;;;2.63;;
18146;SDS011;9199;48.832;9.182;2023-03-21T12:01:00;6.10;;;2.50;;
18146;SDS011;9199;48.832;9.182;2023-03-21T12:03:38;6.72;;;3.00;;
18146;SDS011;9199;48.832;9.182;2023-03-21T12:06:14;7.10;;;2.27;;
18146;SDS011;9199;48.832;9.182;2023-03-21T12:08:48;6.55;;;2.63;;
18146;SDS011;9199;48.832;9.182;2023-03-21T12:11:24;3.80;;;1.95;;
18146;SDS011;9199;48.832;9.182;2023-03-21T12:13:58;6.75;;;2.95;;
18146;SDS011;9199;48.832;9.182;2023-03-21T12:16:35;4.30;;;2.10;;
18146;SDS011;9199;48.832;9.182;2023-03-21T12:19:21;5.80;;;2.40;;
18146;SDS011;9199;48.832;9.182;2023-03-21T12:22:05;4.78;;;2.13;;
18146;SDS011;9199;48.832;9.182;2023-03-21T12:24:38;6.63;;;2.70;;
18146;SDS011;9199;48.832;9.182;2023-03-21T12:27:14;6.95;;;2.70;;
18146;SDS011;9199;48.832;9.182;2023-03-21T12:32:47;6.87;;;2.60;;
18146;SDS011;9199;48.832;9.182;2023-03-21T12:35:29;4.38;;;2.50;;
18146;SDS011;9199;48.832;9.182;2023-03-21T12:38:08;6.80;;;2.38;;
18146;SDS011;9199;48.832;9.182;2023-03-21T12:40:43;4.20;;;2.30;;
18146;SDS011;9199;48.832;9.182;2023-03-21T12:43:22;5.32;;;2.35;;
18146;SDS011;9199;48.832;9.182;2023-03-21T12:45:57;4.70;;;2.30;;
18146;SDS011;9199;48.832;9.182;2023-03-21T12:48:29;4.68;;;2.20;;
18146;SDS011;9199;48.832;9.182;2023-03-21T12:51:03;4.50;;;1.90;;
18146;SDS011;9199;48.832;9.182;2023-03-21T12:53:38;5.55;;;2.53;;
18146;SDS011;9199;48.832;9.182;2023-03-21T12:56:16;7.03;;;2.05;;
18146;SDS011;9199;48.832;9.182;2023-03-21T12:58:50;6.40;;;1.87;;
18146;SDS011;9199;48.832;9.182;2023-03-21T13:01:21;4.40;;;1.88;;
18146;SDS011;9199;48.832;9.182;2023-03-21T13:03:50;4.40;;;1.70;;
18146;SDS011;9199;48.832;9.182;2023-03-21T13:06:31;4.75;;;1.75;;
18146;SDS011;9199;48.832;9.182;2023-03-21T13:09:01;5.50;;;1.70;;
18146;SDS011;9199;48.832;9.182;2023-03-21T13:11:35;4.53;;;1.60;;
18146;SDS011;9199;48.832;9.182;2023-03-21T13:14:03;5.65;;;1.70;;
18146;SDS011;9199;48.832;9.182;2023-03-21T13:16:32;4.55;;;1.70;;
18146;SDS011;9199;48.832;9.182;2023-03-21T13:19:09;3.20;;;1.70;;
18146;SDS011;9199;48.832;9.182;2023-03-21T13:21:42;4.97;;;1.80;;
18146;SDS011;9199;48.832;9.182;2023-03-21T13:24:22;4.83;;;1.70;;
18146;SDS011;9199;48.832;9.182;2023-03-21T13:26:52;4.43;;;2.13;;
18146;SDS011;9199;48.832;9.182;2023-03-21T13:29:25;4.57;;;1.88;;
18146;SDS011;9199;48.832;9.182;2023-03-21T13:31:55;5.20;;;1.73;;
18146;SDS011;9199;48.832;9.182;2023-03-21T13:34:32;4.60;;;1.70;;
18146;SDS011;9199;48.832;9.182;2023-03-21T13:36:59;4.17;;;1.60;;
18146;SDS011;9199;48.832;9.182;2023-03-21T13:39:27;5.25;;;2.00;;
18146;SDS011;9199;48.832;9.182;2023-03-21T13:41:55;5.78;;;1.65;;
18146;SDS011;9199;48.832;9.182;2023-03-21T13:44:30;5.28;;;1.83;;
18146;SDS011;9199;48.832;9.182;2023-03-21T13:47:01;5.25;;;1.75;;
18146;SDS011;9199;48.832;9.182;2023-03-21T13:49:31;4.37;;;2.00;;
18146;SDS011;9199;48.832;9.182;2023-03-21T13:52:01;6.70;;;2.00;;
18146;SDS011;9199;48.832;9.182;2023-03-21T13:54:47;6.30;;;1.80;;
18146;SDS011;9199;48.832;9.182;2023-03-21T13:57:21;4.60;;;2.10;;
18146;SDS011;9199;48.832;9.182;2023-03-21T14:02:59;4.93;;;2.10;;
18146;SDS011;9199;48.832;9.182;2023-03-21T14:05:33;5.75;;;2.50;;
18146;SDS011;9199;48.832;9.182;2023-03-21T14:08:02;5.57;;;2.08;;
18146;SDS011;9199;48.832;9.182;2023-03-21T14:10:32;8.10;;;2.40;;
18146;SDS011;9199;48.832;9.182;2023-03-21T14:13:01;9.07;;;2.22;;
18146;SDS011;9199;48.832;9.182;2023-03-21T14:15:31;6.97;;;2.10;;
18146;SDS011;9199;48.832;9.182;2023-03-21T14:18:05;5.65;;;2.28;;
18146;SDS011;9199;48.832;9.182;2023-03-21T14:20:34;7.07;;;2.80;;
18146;SDS011;9199;48.832;9.182;2023-03-21T14:23:03;7.10;;;2.30;;
18146;SDS011;9199;48.832;9.182;2023-03-21T14:25:31;6.10;;;2.20;;
18146;SDS011;9199;48.832;9.182;2023-03-21T14:28:00;6.07;;;2.27;;
18146;SDS011;9199;48.832;9.182;2023-03-21T14:30:31;6.45;;;2.80;;
18146;SDS011;9199;48.832;9.182;2023-03-21T14:33:02;5.97;;;2.30;;
18146;SDS011;9199;48.832;9.182;2023-03-21T14:35:39;7.38;;;2.28;;
18146;SDS011;9199;48.832;9.182;2023-03-21T14:38:06;6.07;;;2.22;;
18146;SDS011;9199;48.832;9.182;2023-03-21T14:40:45;6.03;;;2.37;;
18146;SDS011;9199;48.832;9.182;2023-03-21T14:43:12;6.63;;;2.47;;
18146;SDS011;9199;48.832;9.182;2023-03-21T14:45:39;7.30;;;2.20;;
18146;SDS011;9199;48.832;9.182;2023-03-21T14:48:07;5.35;;;2.10;;
18146;SDS011;9199;48.832;9.182;2023-03-21T14:50:39;5.00;;;2.15;;
18146;SDS011;9199;48.832;9.182;2023-03-21T14:53:13;6.50;;;1.80;;
18146;SDS011;9199;48.832;9.182;2023-03-21T14:55:42;4.65;;;2.17;;
18146;SDS011;9199;48.832;9.182;2023-03-21T14:58:11;6.03;;;2.40;;
18146;SDS011;9199;48.832;9.182;2023-03-21T15:00:41;4.57;;;2.00;;
18146;SDS011;9199;48.832;9.182;2023-03-21T15:03:09;5.75;;;2.00;;
18146;SDS011;9199;48.832;9.182;2023-03-21T15:05:39;5.93;;;2.27;;
18146;SDS011;9199;48.832;9.182;2023-03-21T15:08:07;4.97;;;1.92;;
18146;SDS011;9199;48.832;9.182;2023-03-21T15:10:39;6.32;;;2.42;;
18146;SDS011;9199;48.832;9.182;2023-03-21T15:13:12;5.78;;;2.03;;
18146;SDS011;9199;48.832;9.182;2023-03-21T15:15:41;5.38;;;2.28;;
18146;SDS011;9199;48.832;9.182;2023-03-21T15:18:10;6.33;;;2.50;;
18146;SDS011;9199;48.832;9.182;2023-03-21T15:20:42;7.95;;;2.30;;
18146;SDS011;9199;48.832;9.182;2023-03-21T15:23:13;6.53;;;2.85;;
18146;SDS011;9199;48.832;9.182;2023-03-21T15:25:50;7.20;;;2.88;;
18146;SDS011;9199;48.832;9.182;2023-03-21T15:28:18;6.20;;;2.70;;